首页
METAR-TAF:

METAR-TAF

机场 :

赫羅納-布拉瓦海岸機場

赫罗纳, 西班牙

纬度: 41-54N, 经度: 002-46E, 海拔: 143米

当前天气观测

该预报发布于29分钟前的17:00 UTC
风速8节,风向,在东南南转西南之间变化
温度 26°C
湿度 45%
气压 1015 hPa
能见度10公里或以上
少量云层高于3000英尺

METAR: LEGE 171700Z 18008KT 140V210 9999 FEW030 26/13 Q1015

时间: 19:29 (17:29 UTC)

预报

该预报发布于6小时和29分钟前的11:00 UTC
预报有效从17日的 12点(UTC)到 18日的 12点(UTC)
风速10节,风向
能见度10公里或以上
少量云层高于3000英尺
成为
从 17日的 19点(UTC)到 17日的 21点(UTC)
风速3节,风向多变
成为
从 18日的 10点(UTC)到 18日的 12点(UTC)
风速17节,风向

TAF: LEGE 171100Z 1712/1812 18010KT 9999 FEW030 TX32/1713Z TN17/1806Z BECMG 1719/1721 VRB03KT BECMG 1810/1812 19017KT

超过4000个机场的气象观测和天气预报(METAR&TAF报告)。

可查询的气象台以黄色和红色小点在地图上表示。

将鼠标移到小点上方,可查看气象台名称。

然后点击查看天气观测和预报。

如需切换地图:点击带黑十字的绿色按钮放大地图;点击带横线的绿色按钮缩小地图;或者点击绿色箭头查看邻近地区的地图。


METAR-TAF: